Time;durP1;ratioP1;P1;durP2;ratioP2;P2;SDS_P1;SDS_P2;PMS_P1;PMS_P2;Temp;Humidity;BMP_temperature;BMP_pressure;BME280_temperature;BME280_humidity;BME280_pressure;Samples;Min_cycle;Max_cycle;Signal;HPM_P1;HPM_P2
2023/06/09 00:00:11;;;;;;;6.45;5.25;;;19.80;99.90;;;;;;2084183;28;20029;-70
2023/06/09 00:01:12;;;;;;;6.80;6.15;;;19.80;99.90;;;;;;2084195;28;20075;-70
2023/06/09 00:02:13;;;;;;;6.65;5.97;;;19.70;99.90;;;;;;2083382;28;20021;-70
2023/06/09 00:03:21;;;;;;;5.65;5.10;;;19.70;99.90;;;;;;2083156;28;20159;-70
2023/06/09 00:04:23;;;;;;;6.50;5.63;;;19.70;99.90;;;;;;2082721;28;20485;-70
2023/06/09 00:05:25;;;;;;;6.15;5.65;;;19.70;99.90;;;;;;2082426;28;20065;-70
2023/06/09 00:06:26;;;;;;;6.72;6.13;;;19.70;99.90;;;;;;2081069;28;20046;-70
2023/06/09 00:07:27;;;;;;;6.55;5.18;;;19.60;99.90;;;;;;2084500;28;20051;-70
2023/06/09 00:08:29;;;;;;;6.25;5.50;;;19.60;99.90;;;;;;2085249;28;20029;-70
2023/06/09 00:09:30;;;;;;;7.00;6.30;;;19.70;99.90;;;;;;2083178;28;20021;-70
2023/06/09 00:10:30;;;;;;;8.00;6.32;;;19.60;99.90;;;;;;2082806;28;20017;-70
2023/06/09 00:11:31;;;;;;;6.10;5.50;;;19.60;99.90;;;;;;2083420;28;20030;-70
2023/06/09 00:12:31;;;;;;;5.65;5.15;;;19.60;99.90;;;;;;2082903;28;20026;-70
2023/06/09 00:13:32;;;;;;;6.70;5.50;;;19.60;99.90;;;;;;2081351;28;20041;-70
2023/06/09 00:14:32;;;;;;;6.45;5.70;;;19.60;99.90;;;;;;2081564;28;20487;-70
2023/06/09 00:15:33;;;;;;;7.97;6.32;;;19.50;99.90;;;;;;2082800;28;20021;-70
2023/06/09 00:16:33;;;;;;;7.40;5.70;;;19.60;99.90;;;;;;2083853;28;20020;-70
2023/06/09 00:17:34;;;;;;;7.90;5.68;;;19.50;99.90;;;;;;2082887;28;20040;-70
2023/06/09 00:18:35;;;;;;;6.10;5.45;;;19.50;99.90;;;;;;2084366;28;20014;-70
2023/06/09 00:19:36;;;;;;;6.10;5.50;;;19.50;99.90;;;;;;2083726;28;20734;-70
2023/06/09 00:20:37;;;;;;;5.97;5.38;;;19.50;99.90;;;;;;2082378;28;20485;-70
2023/06/09 00:21:37;;;;;;;6.70;6.05;;;19.50;99.90;;;;;;2082246;28;20624;-70
2023/06/09 00:22:44;;;;;;;6.82;6.20;;;19.50;99.90;;;;;;2081250;28;20103;-70
2023/06/09 00:23:46;;;;;;;6.90;6.15;;;19.40;99.90;;;;;;2081745;28;20022;-70
2023/06/09 00:24:46;;;;;;;6.85;5.65;;;19.40;99.90;;;;;;2080411;28;20025;-70
2023/06/09 00:25:47;;;;;;;5.97;5.40;;;19.40;99.90;;;;;;2082726;28;20040;-70
2023/06/09 00:26:49;;;;;;;8.27;6.20;;;19.40;99.90;;;;;;2082317;28;20017;-70
2023/06/09 00:27:49;;;;;;;6.65;5.93;;;19.40;99.90;;;;;;2081313;28;20028;-70
2023/06/09 00:28:50;;;;;;;7.28;6.57;;;19.40;99.90;;;;;;2082557;28;20029;-70
2023/06/09 00:29:51;;;;;;;6.60;5.90;;;19.40;99.90;;;;;;2080722;28;20196;-70
2023/06/09 00:30:51;;;;;;;7.07;6.10;;;19.40;99.90;;;;;;2081558;28;20029;-70
2023/06/09 00:31:52;;;;;;;7.38;6.30;;;19.30;99.90;;;;;;2083139;28;20374;-70
2023/06/09 00:32:52;;;;;;;7.15;6.05;;;19.30;99.90;;;;;;2082170;28;20043;-70
2023/06/09 00:33:53;;;;;;;7.10;5.72;;;19.30;99.90;;;;;;2082962;28;20021;-70
2023/06/09 00:34:53;;;;;;;7.28;6.30;;;19.30;99.90;;;;;;2081710;28;20029;-70
2023/06/09 00:35:54;;;;;;;7.15;6.55;;;19.30;99.90;;;;;;2082859;28;20412;-70
2023/06/09 00:36:54;;;;;;;6.85;6.22;;;19.30;99.90;;;;;;2082487;28;20046;-70
2023/06/09 00:37:55;;;;;;;6.60;6.00;;;19.30;99.90;;;;;;2082840;28;20057;-70
2023/06/09 00:38:55;;;;;;;8.20;6.47;;;19.20;99.90;;;;;;2083825;28;20033;-70
2023/06/09 00:39:57;;;;;;;7.03;6.30;;;19.20;99.90;;;;;;2082609;28;20036;-70
2023/06/09 00:40:57;;;;;;;7.90;5.78;;;19.20;99.90;;;;;;2081486;28;20069;-70
2023/06/09 00:41:58;;;;;;;6.63;5.70;;;19.20;99.90;;;;;;2081031;28;20083;-70
2023/06/09 00:42:59;;;;;;;6.50;5.90;;;19.20;99.90;;;;;;2080916;28;20068;-70
2023/06/09 00:43:59;;;;;;;6.75;6.10;;;19.20;99.90;;;;;;2081000;28;20040;-70
2023/06/09 00:45:00;;;;;;;7.65;6.05;;;19.20;99.90;;;;;;2084090;28;20075;-70
2023/06/09 00:46:05;;;;;;;6.18;5.68;;;19.20;99.90;;;;;;2081233;28;20033;-70
2023/06/09 00:47:07;;;;;;;7.47;6.68;;;19.20;99.90;;;;;;2083016;28;20393;-70
2023/06/09 00:48:08;;;;;;;7.65;6.22;;;19.10;99.90;;;;;;2081538;28;20123;-70
2023/06/09 00:49:09;;;;;;;6.38;5.82;;;19.10;99.90;;;;;;2082726;28;20029;-70
2023/06/09 00:50:11;;;;;;;7.97;6.40;;;19.10;99.90;;;;;;2081598;28;20101;-70
2023/06/09 00:51:11;;;;;;;7.05;6.35;;;19.10;99.90;;;;;;2082335;28;20017;-70
2023/06/09 00:52:12;;;;;;;6.55;5.95;;;19.10;99.90;;;;;;2083187;28;20025;-70
2023/06/09 00:53:15;;;;;;;7.40;6.70;;;19.10;99.90;;;;;;2081251;28;20029;-70
2023/06/09 00:54:17;;;;;;;9.20;6.93;;;19.10;99.90;;;;;;2082104;28;20521;-70
2023/06/09 00:55:19;;;;;;;8.00;7.20;;;19.10;99.90;;;;;;2081555;28;20033;-70
2023/06/09 00:56:23;;;;;;;7.00;5.70;;;19.10;99.90;;;;;;2082741;28;20021;-70
2023/06/09 00:57:24;;;;;;;9.82;6.88;;;19.00;99.90;;;;;;2082253;28;20380;-70
2023/06/09 00:58:24;;;;;;;6.97;5.82;;;19.00;99.90;;;;;;2080997;28;20025;-70
2023/06/09 00:59:25;;;;;;;7.40;6.60;;;19.00;99.90;;;;;;2080622;28;20026;-70
2023/06/09 01:00:27;;;;;;;7.28;6.63;;;19.00;99.90;;;;;;2082188;28;20017;-70
2023/06/09 01:01:28;;;;;;;6.25;5.75;;;19.00;99.90;;;;;;2082324;28;20022;-70
2023/06/09 01:02:29;;;;;;;7.95;6.97;;;19.00;99.90;;;;;;2081837;28;20021;-70
2023/06/09 01:03:32;;;;;;;7.28;6.57;;;18.90;99.90;;;;;;2082521;28;20053;-70
2023/06/09 01:04:35;;;;;;;8.65;7.72;;;19.00;99.90;;;;;;2082283;28;20018;-70
2023/06/09 01:05:38;;;;;;;14.23;6.53;;;19.00;99.90;;;;;;2081629;28;20760;-70
2023/06/09 01:06:48;;;;;;;8.98;6.28;;;18.90;99.90;;;;;;2080725;28;20113;-70
2023/06/09 01:08:05;;;;;;;7.25;6.38;;;18.90;99.90;;;;;;2083938;28;20125;-70
2023/06/09 01:09:29;;;;;;;7.45;6.85;;;18.90;99.90;;;;;;2083241;28;20112;-70
2023/06/09 01:10:42;;;;;;;7.72;6.90;;;18.90;99.90;;;;;;2086159;28;20029;-70
2023/06/09 01:12:12;;;;;;;7.47;6.65;;;18.80;99.90;;;;;;2082289;28;20036;-70
2023/06/09 01:13:28;;;;;;;6.75;6.03;;;18.90;99.90;;;;;;2081469;28;20132;-70
2023/06/09 01:14:36;;;;;;;7.20;6.50;;;18.80;99.90;;;;;;2082747;28;20807;-70
2023/06/09 01:15:44;;;;;;;7.68;6.95;;;18.80;99.90;;;;;;2082856;28;20544;-70
2023/06/09 01:17:07;;;;;;;7.95;7.10;;;18.80;99.90;;;;;;2082582;28;20054;-70
2023/06/09 01:18:13;;;;;;;7.05;6.45;;;18.80;99.90;;;;;;2082956;28;20052;-70
2023/06/09 01:19:31;;;;;;;10.88;7.50;;;18.80;99.90;;;;;;2083723;28;20018;-70
2023/06/09 01:21:02;;;;;;;6.82;6.22;;;18.80;99.90;;;;;;2082228;28;20023;-70
2023/06/09 01:22:09;;;;;;;7.65;6.85;;;18.70;99.90;;;;;;2082268;28;20388;-70
2023/06/09 01:23:20;;;;;;;9.13;5.70;;;18.70;99.90;;;;;;2082642;28;20025;-70
2023/06/09 01:24:57;;;;;;;7.78;6.97;;;18.70;99.90;;;;;;2082169;28;20457;-70
2023/06/09 01:25:59;;;;;;;10.25;7.93;;;18.70;99.90;;;;;;2083463;28;20029;-70
2023/06/09 01:27:02;;;;;;;11.02;7.85;;;18.70;99.90;;;;;;2084302;28;20025;-70
2023/06/09 01:28:14;;;;;;;7.78;7.00;;;18.70;99.90;;;;;;2081695;28;20021;-70
2023/06/09 01:29:15;;;;;;;8.55;7.60;;;18.70;99.90;;;;;;2082489;28;20034;-70
2023/06/09 01:30:18;;;;;;;8.68;7.22;;;18.70;99.90;;;;;;2082181;28;20033;-70
2023/06/09 01:31:19;;;;;;;8.75;7.20;;;18.70;99.90;;;;;;2083495;28;20057;-70
2023/06/09 01:32:21;;;;;;;9.07;7.78;;;18.70;99.90;;;;;;2083078;28;20037;-70
2023/06/09 01:33:24;;;;;;;10.82;8.13;;;18.70;99.90;;;;;;2083399;28;20504;-70
2023/06/09 01:34:25;;;;;;;8.15;7.22;;;18.70;99.90;;;;;;2084277;28;20040;-70
2023/06/09 01:35:27;;;;;;;8.35;7.38;;;18.70;99.90;;;;;;2082086;28;20033;-70
2023/06/09 01:36:29;;;;;;;9.15;6.95;;;18.70;99.90;;;;;;2083430;28;20028;-70
2023/06/09 01:37:30;;;;;;;7.95;6.97;;;18.70;99.90;;;;;;2081516;28;20047;-70
2023/06/09 01:38:31;;;;;;;8.43;7.25;;;18.70;99.90;;;;;;2082633;28;20687;-70
2023/06/09 01:39:32;;;;;;;8.57;6.85;;;18.80;99.90;;;;;;2081433;28;20021;-70
2023/06/09 01:40:34;;;;;;;10.02;7.30;;;18.70;99.90;;;;;;2080834;28;20546;-70
2023/06/09 01:41:34;;;;;;;10.30;7.55;;;18.70;99.90;;;;;;2083708;28;20029;-70
2023/06/09 01:42:35;;;;;;;9.77;7.68;;;18.70;99.90;;;;;;2085838;28;20078;-70
2023/06/09 01:43:35;;;;;;;9.88;7.03;;;18.70;99.90;;;;;;2085316;28;20555;-70
2023/06/09 01:44:36;;;;;;;8.75;7.07;;;18.80;99.90;;;;;;2084691;28;20489;-70
2023/06/09 01:45:37;;;;;;;11.38;7.60;;;18.70;99.90;;;;;;2083147;28;20029;-70
2023/06/09 01:46:37;;;;;;;12.10;7.32;;;18.80;99.90;;;;;;2083478;28;20103;-70
2023/06/09 01:47:38;;;;;;;13.32;7.65;;;18.80;99.90;;;;;;2084719;28;20029;-70
2023/06/09 01:48:46;;;;;;;8.32;7.18;;;18.80;99.90;;;;;;2082179;28;20030;-70
2023/06/09 01:50:03;;;;;;;9.02;7.22;;;18.70;99.90;;;;;;2084222;28;20009;-70
2023/06/09 01:51:11;;;;;;;10.10;7.75;;;18.70;99.90;;;;;;2084765;28;20489;-70
2023/06/09 01:52:20;;;;;;;10.55;7.80;;;18.70;99.90;;;;;;2085903;28;20517;-70
2023/06/09 01:53:28;;;;;;;8.45;6.75;;;18.70;99.90;;;;;;2084665;28;20056;-70
2023/06/09 01:54:37;;;;;;;8.45;6.82;;;18.70;99.90;;;;;;2084117;28;20045;-70
2023/06/09 01:55:44;;;;;;;9.82;7.60;;;18.70;99.90;;;;;;2084360;28;20041;-70
2023/06/09 01:56:47;;;;;;;8.40;6.78;;;18.70;99.90;;;;;;2083049;28;20665;-70
2023/06/09 01:57:56;;;;;;;11.05;7.53;;;18.70;99.90;;;;;;2083981;28;20049;-70
2023/06/09 01:59:04;;;;;;;10.60;7.30;;;18.70;99.90;;;;;;2083543;28;20026;-70
2023/06/09 02:00:06;;;;;;;8.80;7.80;;;18.60;99.90;;;;;;2081563;28;20034;-70
2023/06/09 02:01:08;;;;;;;11.65;6.60;;;18.70;99.90;;;;;;2084721;28;20021;-70
2023/06/09 02:02:10;;;;;;;10.48;7.38;;;18.60;99.90;;;;;;2082761;28;20032;-70
2023/06/09 02:03:13;;;;;;;11.15;7.60;;;18.60;99.90;;;;;;2082582;28;20021;-70
2023/06/09 02:04:16;;;;;;;10.75;7.57;;;18.70;99.90;;;;;;2083293;28;20121;-70
2023/06/09 02:05:18;;;;;;;22.77;8.48;;;18.60;99.90;;;;;;2084051;28;20382;-70
2023/06/09 02:06:20;;;;;;;9.23;7.57;;;18.60;99.90;;;;;;2083315;28;20033;-70
2023/06/09 02:07:21;;;;;;;9.68;7.03;;;18.60;99.90;;;;;;2084478;28;20556;-70
2023/06/09 02:08:23;;;;;;;10.30;7.45;;;18.60;99.90;;;;;;2083284;28;20367;-70
2023/06/09 02:09:24;;;;;;;11.65;7.07;;;18.60;99.90;;;;;;2081636;28;20075;-70
2023/06/09 02:10:25;;;;;;;11.55;7.90;;;18.60;99.90;;;;;;2083578;28;20036;-70
2023/06/09 02:11:26;;;;;;;12.23;7.75;;;18.60;99.90;;;;;;2082045;28;20516;-70
2023/06/09 02:12:34;;;;;;;10.85;8.07;;;18.60;99.90;;;;;;2083188;28;20362;-70
2023/06/09 02:13:34;;;;;;;10.02;7.55;;;18.60;99.90;;;;;;2084109;28;20024;-70
2023/06/09 02:14:35;;;;;;;11.10;7.47;;;18.60;99.90;;;;;;2086107;28;20021;-70
2023/06/09 02:15:35;;;;;;;8.60;6.88;;;18.60;99.90;;;;;;2086657;28;20013;-70
2023/06/09 02:16:36;;;;;;;11.73;7.90;;;18.60;99.90;;;;;;2082175;28;20045;-70
2023/06/09 02:17:39;;;;;;;9.63;7.07;;;18.60;99.90;;;;;;2082297;28;20025;-70
2023/06/09 02:18:40;;;;;;;12.05;7.75;;;18.60;99.90;;;;;;2084374;28;20027;-70
2023/06/09 02:19:41;;;;;;;10.85;8.07;;;18.60;99.90;;;;;;2084686;28;20036;-70
2023/06/09 02:20:42;;;;;;;10.77;8.00;;;18.60;99.90;;;;;;2083562;28;20029;-70
2023/06/09 02:21:43;;;;;;;12.23;7.93;;;18.60;99.90;;;;;;2082056;28;20047;-70
2023/06/09 02:22:43;;;;;;;10.48;7.47;;;18.60;99.90;;;;;;2083448;28;20059;-70
2023/06/09 02:23:44;;;;;;;8.60;7.35;;;18.60;99.90;;;;;;2083543;28;20036;-70
2023/06/09 02:24:44;;;;;;;8.88;7.28;;;18.60;99.90;;;;;;2082667;28;20072;-70
2023/06/09 02:25:45;;;;;;;12.52;7.93;;;18.60;99.90;;;;;;2080872;28;20104;-70
2023/06/09 02:26:50;;;;;;;8.25;7.43;;;18.50;99.90;;;;;;2082133;28;20025;-70
2023/06/09 02:27:50;;;;;;;8.05;7.22;;;18.60;99.90;;;;;;2083883;28;20088;-70
2023/06/09 02:28:51;;;;;;;9.20;7.93;;;18.50;99.90;;;;;;2082920;28;20096;-70
2023/06/09 02:29:51;;;;;;;10.85;7.75;;;18.50;99.90;;;;;;2083543;28;20029;-70
2023/06/09 02:30:52;;;;;;;10.23;7.07;;;18.50;99.90;;;;;;2083024;28;20036;-70
2023/06/09 02:31:54;;;;;;;11.02;6.93;;;18.50;99.90;;;;;;2083349;28;20025;-70
2023/06/09 02:32:55;;;;;;;13.50;8.07;;;18.50;99.90;;;;;;2083258;28;20059;-70
2023/06/09 02:33:55;;;;;;;12.57;7.40;;;18.50;99.90;;;;;;2082196;28;20428;-70
2023/06/09 02:34:56;;;;;;;11.50;8.27;;;18.50;99.90;;;;;;2083707;28;20422;-70
2023/06/09 02:35:57;;;;;;;9.07;7.70;;;18.50;99.90;;;;;;2082400;28;20412;-70
2023/06/09 02:36:59;;;;;;;12.45;8.45;;;18.50;99.90;;;;;;2084434;28;20115;-70
2023/06/09 02:38:05;;;;;;;9.38;7.78;;;18.50;99.90;;;;;;2081578;28;20064;-70
2023/06/09 02:39:05;;;;;;;9.48;7.88;;;18.50;99.90;;;;;;2081121;28;20065;-70
2023/06/09 02:40:08;;;;;;;10.70;7.93;;;18.50;99.90;;;;;;2080635;28;20611;-70
2023/06/09 02:41:08;;;;;;;8.90;7.82;;;18.50;99.90;;;;;;2083340;28;20548;-70
2023/06/09 02:42:09;;;;;;;10.68;7.65;;;18.50;99.90;;;;;;2081831;28;20396;-70
2023/06/09 02:43:10;;;;;;;9.15;7.65;;;18.50;99.90;;;;;;2081947;28;20496;-70
2023/06/09 02:44:10;;;;;;;11.75;7.65;;;18.50;99.90;;;;;;2082616;28;20389;-70
2023/06/09 02:45:12;;;;;;;9.13;6.93;;;18.50;99.90;;;;;;2082146;28;20156;-70
2023/06/09 02:46:13;;;;;;;10.57;7.45;;;18.50;99.90;;;;;;2084117;28;20024;-70
2023/06/09 02:47:14;;;;;;;11.77;7.07;;;18.50;99.90;;;;;;2082415;28;20018;-70
2023/06/09 02:48:15;;;;;;;10.27;8.23;;;18.50;99.90;;;;;;2081832;28;20013;-70
2023/06/09 02:49:16;;;;;;;10.23;7.05;;;18.50;99.90;;;;;;2083121;28;20021;-70
2023/06/09 02:50:17;;;;;;;10.38;7.65;;;18.50;99.90;;;;;;2081611;28;20081;-70
2023/06/09 02:51:18;;;;;;;9.45;7.43;;;18.50;99.90;;;;;;2082837;28;20440;-70
2023/06/09 02:52:19;;;;;;;12.70;7.97;;;18.50;99.90;;;;;;2084872;28;20030;-70
2023/06/09 02:53:20;;;;;;;8.15;7.07;;;18.50;99.90;;;;;;2082363;28;20041;-70
2023/06/09 02:54:20;;;;;;;10.98;7.10;;;18.50;99.90;;;;;;2085813;28;20123;-70
2023/06/09 02:55:21;;;;;;;9.68;7.70;;;18.50;99.90;;;;;;2084203;28;20502;-70
2023/06/09 02:56:22;;;;;;;12.07;8.55;;;18.50;99.90;;;;;;2082137;28;20021;-70
2023/06/09 02:57:23;;;;;;;10.85;8.45;;;18.50;99.90;;;;;;2082612;28;20021;-70
2023/06/09 02:58:24;;;;;;;8.80;6.88;;;18.50;99.90;;;;;;2082896;28;20460;-70
2023/06/09 02:59:25;;;;;;;11.50;7.57;;;18.50;99.90;;;;;;2083024;28;20040;-70
2023/06/09 03:00:25;;;;;;;9.95;7.00;;;18.50;99.90;;;;;;2081888;28;20482;-70
2023/06/09 03:01:35;;;;;;;14.25;8.45;;;18.40;99.90;;;;;;2082717;28;20021;-70
2023/06/09 03:02:37;;;;;;;9.55;7.07;;;18.50;99.90;;;;;;2084830;28;20013;-70
2023/06/09 03:03:38;;;;;;;11.68;7.25;;;18.40;99.90;;;;;;2081818;28;20063;-70
2023/06/09 03:04:40;;;;;;;11.32;8.57;;;18.40;99.90;;;;;;2082717;28;20028;-70
2023/06/09 03:05:44;;;;;;;11.40;8.07;;;18.40;99.90;;;;;;2082238;28;20020;-70
2023/06/09 03:06:44;;;;;;;9.27;7.47;;;18.40;99.90;;;;;;2083337;28;20631;-70
2023/06/09 03:07:45;;;;;;;10.50;7.43;;;18.40;99.90;;;;;;2082553;28;20119;-70
2023/06/09 03:08:46;;;;;;;9.75;8.13;;;18.40;99.90;;;;;;2082127;28;20025;-70
2023/06/09 03:09:46;;;;;;;13.18;7.57;;;18.40;99.90;;;;;;2084584;28;20021;-70
2023/06/09 03:10:47;;;;;;;8.70;6.40;;;18.40;99.90;;;;;;2083668;28;20028;-70
2023/06/09 03:11:47;;;;;;;9.35;7.30;;;18.30;99.90;;;;;;2083193;28;20061;-70
2023/06/09 03:12:48;;;;;;;9.95;7.45;;;18.40;99.90;;;;;;2082080;28;20024;-70
2023/06/09 03:13:48;;;;;;;7.15;6.45;;;18.30;99.90;;;;;;2083607;28;20100;-71
2023/06/09 03:14:49;;;;;;;9.60;8.27;;;18.30;99.90;;;;;;2082480;28;20028;-71
2023/06/09 03:15:51;;;;;;;12.80;7.80;;;18.30;99.90;;;;;;2082265;28;20032;-71
2023/06/09 03:16:52;;;;;;;10.82;7.18;;;18.30;99.90;;;;;;2083269;28;20045;-71
2023/06/09 03:17:53;;;;;;;8.65;6.53;;;18.30;99.90;;;;;;2086078;28;20397;-71
2023/06/09 03:18:54;;;;;;;8.27;6.63;;;18.40;99.90;;;;;;2085877;28;20021;-71
2023/06/09 03:19:56;;;;;;;8.50;6.65;;;18.30;99.90;;;;;;2081365;28;20148;-71
2023/06/09 03:21:04;;;;;;;12.75;7.05;;;18.30;99.90;;;;;;2081598;28;20428;-71
2023/06/09 03:22:05;;;;;;;7.57;6.60;;;18.30;99.90;;;;;;2084287;28;20084;-70
2023/06/09 03:23:06;;;;;;;9.23;7.80;;;18.30;99.90;;;;;;2082645;28;20025;-70
2023/06/09 03:24:07;;;;;;;10.55;7.68;;;18.30;99.90;;;;;;2081282;28;20029;-70
2023/06/09 03:25:08;;;;;;;7.30;6.45;;;18.30;99.90;;;;;;2082687;28;20026;-70
2023/06/09 03:26:09;;;;;;;9.43;6.93;;;18.30;99.90;;;;;;2081924;28;20036;-70
2023/06/09 03:27:10;;;;;;;10.00;7.32;;;18.20;99.90;;;;;;2084759;28;20021;-70
2023/06/09 03:28:10;;;;;;;9.38;7.75;;;18.20;99.90;;;;;;2083121;28;20132;-71
2023/06/09 03:29:11;;;;;;;10.13;7.70;;;18.20;99.90;;;;;;2081589;28;20032;-70
2023/06/09 03:30:12;;;;;;;12.75;8.40;;;18.20;99.90;;;;;;2082826;28;20052;-70
2023/06/09 03:31:17;;;;;;;13.07;7.55;;;18.20;99.90;;;;;;2082398;28;20094;-70
2023/06/09 03:32:17;;;;;;;8.65;7.85;;;18.20;99.90;;;;;;2082569;28;20021;-70
2023/06/09 03:33:21;;;;;;;10.10;6.93;;;18.20;99.90;;;;;;2081092;28;20155;-70
2023/06/09 03:34:22;;;;;;;9.52;7.65;;;18.20;99.90;;;;;;2082253;28;20037;-70
2023/06/09 03:35:23;;;;;;;9.13;7.28;;;18.20;99.90;;;;;;2081179;28;20025;-70
2023/06/09 03:36:24;;;;;;;9.32;7.93;;;18.20;99.90;;;;;;2083283;28;20096;-70
2023/06/09 03:37:24;;;;;;;9.75;7.80;;;18.20;99.90;;;;;;2081449;28;20029;-70
2023/06/09 03:38:25;;;;;;;8.02;7.00;;;18.20;99.90;;;;;;2081995;28;20029;-70
2023/06/09 03:39:26;;;;;;;7.78;7.07;;;18.10;99.90;;;;;;2082231;28;20036;-70
2023/06/09 03:40:26;;;;;;;9.07;6.75;;;18.10;99.90;;;;;;2079801;28;20135;-70
2023/06/09 03:41:27;;;;;;;7.13;6.43;;;18.10;99.90;;;;;;2082867;28;20036;-70
2023/06/09 03:42:27;;;;;;;8.27;7.07;;;18.10;99.90;;;;;;2082684;28;20035;-70
2023/06/09 03:43:28;;;;;;;7.72;6.93;;;18.10;99.90;;;;;;2082185;28;20021;-70
2023/06/09 03:44:29;;;;;;;10.10;7.70;;;18.10;99.90;;;;;;2083743;28;20028;-70
2023/06/09 03:45:29;;;;;;;11.18;7.93;;;18.10;99.90;;;;;;2082155;28;20029;-70
2023/06/09 03:46:30;;;;;;;7.43;6.55;;;18.10;99.90;;;;;;2084234;28;20017;-70
2023/06/09 03:47:30;;;;;;;8.15;6.75;;;18.10;99.90;;;;;;2080338;28;20091;-70
2023/06/09 03:48:31;;;;;;;10.40;7.18;;;18.00;99.90;;;;;;2082210;28;20144;-70
2023/06/09 03:49:31;;;;;;;8.43;7.32;;;18.00;99.90;;;;;;2084257;28;20055;-70
2023/06/09 03:50:33;;;;;;;7.93;6.60;;;18.10;99.90;;;;;;2082816;28;20021;-70
2023/06/09 03:51:33;;;;;;;8.68;7.45;;;18.00;99.90;;;;;;2083415;28;20032;-70
2023/06/09 03:52:34;;;;;;;8.13;7.43;;;18.00;99.90;;;;;;2082720;28;20029;-70
2023/06/09 03:53:35;;;;;;;8.50;7.60;;;18.10;99.90;;;;;;2081463;28;20438;-70
2023/06/09 03:54:36;;;;;;;11.13;8.30;;;18.10;99.90;;;;;;2085316;28;20086;-70
2023/06/09 03:55:38;;;;;;;10.70;8.57;;;18.10;99.90;;;;;;2084047;28;20277;-70
2023/06/09 03:56:38;;;;;;;8.55;6.85;;;18.00;99.90;;;;;;2080853;28;20021;-70
2023/06/09 03:57:39;;;;;;;9.48;7.60;;;18.10;99.90;;;;;;2085555;28;20060;-70
2023/06/09 03:58:39;;;;;;;7.90;7.20;;;18.00;99.90;;;;;;2083984;28;20017;-70
2023/06/09 03:59:40;;;;;;;9.48;7.78;;;18.00;99.90;;;;;;2082119;28;20031;-70
2023/06/09 04:00:42;;;;;;;10.30;7.28;;;18.10;99.90;;;;;;2082965;28;20025;-70
2023/06/09 04:01:43;;;;;;;8.50;7.00;;;18.10;99.90;;;;;;2083140;28;20169;-70
2023/06/09 04:02:43;;;;;;;10.57;8.20;;;18.10;99.90;;;;;;2082560;28;20021;-70
2023/06/09 04:03:44;;;;;;;8.52;7.45;;;18.20;99.90;;;;;;2080508;28;20120;-70
2023/06/09 04:04:45;;;;;;;10.25;7.25;;;18.20;99.90;;;;;;2082657;28;20473;-70
2023/06/09 04:05:46;;;;;;;10.70;7.75;;;18.30;99.90;;;;;;2083224;28;20492;-70
2023/06/09 04:06:46;;;;;;;10.43;8.55;;;18.40;99.90;;;;;;2083514;28;20052;-70
2023/06/09 04:07:47;;;;;;;9.30;8.20;;;18.40;99.90;;;;;;2082103;28;20013;-70
2023/06/09 04:08:48;;;;;;;10.80;7.93;;;18.50;99.90;;;;;;2083392;28;20025;-70
2023/06/09 04:09:48;;;;;;;14.70;9.35;;;18.60;99.90;;;;;;2081254;28;20474;-70
2023/06/09 04:10:49;;;;;;;10.18;8.80;;;18.70;99.90;;;;;;2081926;28;20382;-70
2023/06/09 04:11:50;;;;;;;8.40;7.55;;;18.70;99.90;;;;;;2080932;28;20017;-70
2023/06/09 04:12:51;;;;;;;10.85;8.00;;;18.80;99.90;;;;;;2082791;28;20017;-70
2023/06/09 04:13:52;;;;;;;9.85;7.72;;;18.90;99.90;;;;;;2082515;28;20964;-70
2023/06/09 04:14:52;;;;;;;9.52;7.90;;;19.10;99.90;;;;;;2082313;28;20071;-70
2023/06/09 04:15:53;;;;;;;9.45;7.90;;;19.20;99.90;;;;;;2083638;28;20076;-70
2023/06/09 04:16:54;;;;;;;8.82;7.72;;;19.40;99.90;;;;;;2082908;28;20437;-70
2023/06/09 04:17:54;;;;;;;9.38;7.97;;;19.50;99.90;;;;;;2082244;28;20199;-70
2023/06/09 04:18:55;;;;;;;10.25;9.07;;;19.60;99.90;;;;;;2083481;28;20488;-70
2023/06/09 04:19:55;;;;;;;8.23;7.15;;;19.70;99.90;;;;;;2080421;28;20067;-70
2023/06/09 04:20:56;;;;;;;9.88;8.00;;;19.80;99.90;;;;;;2080897;28;20036;-70
2023/06/09 04:22:01;;;;;;;10.73;8.70;;;20.00;99.90;;;;;;2082556;28;20428;-70
2023/06/09 04:23:02;;;;;;;9.30;7.40;;;20.10;99.90;;;;;;2080306;28;20029;-70
2023/06/09 04:24:03;;;;;;;8.45;7.55;;;20.10;99.90;;;;;;2080936;28;20056;-70
2023/06/09 04:25:04;;;;;;;10.93;7.25;;;20.30;99.90;;;;;;2082200;28;20032;-70
2023/06/09 04:26:08;;;;;;;9.43;7.65;;;20.30;99.90;;;;;;2080473;28;20494;-70
2023/06/09 04:27:09;;;;;;;9.88;7.95;;;20.40;99.90;;;;;;2081770;28;20030;-70
2023/06/09 04:28:10;;;;;;;8.05;7.28;;;20.40;99.90;;;;;;2082033;28;20595;-70
2023/06/09 04:29:11;;;;;;;10.43;8.35;;;20.30;99.90;;;;;;2081885;28;20022;-70
2023/06/09 04:30:11;;;;;;;9.15;8.07;;;20.30;99.90;;;;;;2081615;28;20475;-70
2023/06/09 04:31:12;;;;;;;9.27;7.88;;;20.30;99.90;;;;;;2081042;28;20024;-70
2023/06/09 04:32:13;;;;;;;7.93;7.07;;;20.20;99.90;;;;;;2081890;28;20017;-70
2023/06/09 04:33:14;;;;;;;10.63;7.95;;;20.20;99.90;;;;;;2082630;28;20033;-70
2023/06/09 04:34:15;;;;;;;13.65;8.63;;;20.20;99.90;;;;;;2082360;28;20116;-70
2023/06/09 04:35:16;;;;;;;8.80;8.00;;;20.20;99.90;;;;;;2081947;28;20025;-70
2023/06/09 04:36:17;;;;;;;8.57;7.68;;;20.20;99.90;;;;;;2083070;28;20472;-70
2023/06/09 04:37:17;;;;;;;10.32;7.78;;;20.20;99.90;;;;;;2081100;28;20029;-70
2023/06/09 04:38:19;;;;;;;10.20;7.05;;;20.20;99.90;;;;;;2083440;28;20031;-70
2023/06/09 04:39:20;;;;;;;8.90;7.93;;;20.20;99.90;;;;;;2082831;28;20036;-70
2023/06/09 04:40:23;;;;;;;8.63;7.43;;;20.30;99.90;;;;;;2080000;28;20029;-70
2023/06/09 04:41:25;;;;;;;9.57;7.18;;;20.30;99.90;;;;;;2083909;28;20178;-70
2023/06/09 04:42:26;;;;;;;9.80;7.50;;;20.30;99.90;;;;;;2081280;28;20046;-70
2023/06/09 04:43:28;;;;;;;9.02;7.43;;;20.30;99.90;;;;;;2081086;28;20029;-70
2023/06/09 04:44:29;;;;;;;9.25;8.15;;;20.40;99.90;;;;;;2082631;28;20025;-70
2023/06/09 04:45:33;;;;;;;10.10;8.27;;;20.40;99.90;;;;;;2082745;28;20035;-70
2023/06/09 04:46:37;;;;;;;8.93;8.00;;;20.40;99.90;;;;;;2082356;28;20108;-70
2023/06/09 04:47:39;;;;;;;8.55;7.10;;;20.50;99.90;;;;;;2084089;28;20354;-70
2023/06/09 04:48:41;;;;;;;11.32;7.63;;;20.50;99.90;;;;;;2084359;28;20020;-70
2023/06/09 04:49:41;;;;;;;10.05;7.53;;;20.60;99.90;;;;;;2085035;28;20075;-70
2023/06/09 04:50:44;;;;;;;10.35;7.50;;;20.60;99.90;;;;;;2083703;28;20024;-70
2023/06/09 04:51:46;;;;;;;12.18;8.07;;;20.60;99.90;;;;;;2081481;28;20032;-70
2023/06/09 04:52:47;;;;;;;8.77;7.55;;;20.70;99.90;;;;;;2081440;28;20021;-70
2023/06/09 04:53:48;;;;;;;8.00;7.22;;;20.70;99.90;;;;;;2082196;28;20025;-70
2023/06/09 04:54:51;;;;;;;7.95;7.15;;;20.80;99.90;;;;;;2080518;28;20014;-70
2023/06/09 04:55:52;;;;;;;8.98;7.95;;;20.90;99.90;;;;;;2083007;28;20381;-70
2023/06/09 04:56:52;;;;;;;8.65;7.68;;;20.90;99.90;;;;;;2082760;28;20029;-70
2023/06/09 04:57:56;;;;;;;10.32;7.68;;;21.00;99.90;;;;;;2083373;28;20507;-70
2023/06/09 04:58:56;;;;;;;9.40;7.95;;;21.00;99.90;;;;;;2084882;28;20026;-70
2023/06/09 05:00:16;;;;;;;8.35;7.28;;;21.00;99.90;;;;;;2080914;28;20529;-70
2023/06/09 05:01:16;;;;;;;10.38;7.25;;;21.10;99.90;;;;;;2081316;28;21458;-70
2023/06/09 05:02:18;;;;;;;9.75;7.55;;;21.20;99.90;;;;;;2083678;28;20500;-70
2023/06/09 05:03:19;;;;;;;10.07;7.85;;;21.20;99.90;;;;;;2081649;28;20047;-70
2023/06/09 05:04:19;;;;;;;11.82;8.98;;;21.20;99.90;;;;;;2080490;28;20516;-70
2023/06/09 05:05:20;;;;;;;9.10;7.68;;;21.30;99.90;;;;;;2081393;28;20075;-70
2023/06/09 05:06:21;;;;;;;9.45;7.88;;;21.40;99.90;;;;;;2081643;28;20047;-70
2023/06/09 05:07:21;;;;;;;9.13;7.65;;;21.40;99.90;;;;;;2082925;28;20028;-70
2023/06/09 05:08:22;;;;;;;11.27;7.95;;;21.50;99.90;;;;;;2082293;28;20052;-70
2023/06/09 05:09:22;;;;;;;11.35;8.10;;;21.50;99.90;;;;;;2080295;28;20558;-70
2023/06/09 05:10:23;;;;;;;8.30;7.38;;;21.60;99.90;;;;;;2081907;28;20571;-70
2023/06/09 05:11:24;;;;;;;14.10;8.70;;;21.60;99.90;;;;;;2082531;28;20111;-70
2023/06/09 05:12:25;;;;;;;9.07;8.05;;;21.60;99.90;;;;;;2085982;28;20104;-70
2023/06/09 05:13:25;;;;;;;10.23;7.47;;;21.70;99.90;;;;;;2082662;28;20017;-70
2023/06/09 05:14:26;;;;;;;11.10;8.10;;;21.80;99.90;;;;;;2083000;28;20061;-70
2023/06/09 05:15:27;;;;;;;9.55;8.05;;;21.80;99.90;;;;;;2082840;28;20086;-70
2023/06/09 05:16:28;;;;;;;9.80;7.97;;;21.90;99.90;;;;;;2082133;28;20056;-70
2023/06/09 05:17:29;;;;;;;13.48;8.52;;;21.90;99.90;;;;;;2084357;28;20021;-70
2023/06/09 05:18:30;;;;;;;13.07;7.13;;;22.00;99.90;;;;;;2084008;28;20091;-70
2023/06/09 05:19:31;;;;;;;9.95;8.93;;;22.00;99.90;;;;;;2084506;28;20112;-70
2023/06/09 05:20:31;;;;;;;13.02;8.95;;;22.10;99.90;;;;;;2083091;28;20032;-70
2023/06/09 05:21:32;;;;;;;9.30;8.32;;;22.20;99.90;;;;;;2084374;28;20851;-70
2023/06/09 05:22:33;;;;;;;11.52;8.43;;;22.20;99.90;;;;;;2082634;28;20031;-70